createdAt,value
2019-04-14T00:01:44.078Z,144.85
2019-04-14T00:04:16.125Z,159.82
2019-04-14T00:06:44.156Z,160.85
2019-04-14T00:09:14.025Z,165.82
2019-04-14T00:11:45.876Z,178.97
2019-04-14T00:14:14.179Z,161.03
2019-04-14T00:16:42.431Z,157.52
2019-04-14T00:19:10.799Z,153.35
2019-04-14T00:21:38.933Z,158.12
2019-04-14T00:24:07.288Z,181.45
2019-04-14T00:26:35.632Z,166.92
2019-04-14T00:29:04.620Z,163.80
2019-04-14T00:31:32.885Z,155.97
2019-04-14T00:34:05.140Z,150.25
2019-04-14T00:36:34.818Z,147.57
2019-04-14T00:39:03.682Z,164.45
2019-04-14T00:41:41.354Z,168.75
2019-04-14T00:44:03.636Z,158.75
2019-04-14T00:46:38.799Z,157.90
2019-04-14T00:49:05.599Z,166.70
2019-04-14T00:51:33.140Z,163.45
2019-04-14T00:54:00.285Z,165.43
2019-04-14T00:56:27.937Z,171.93
2019-04-14T00:58:56.022Z,164.28
2019-04-14T01:01:24.291Z,175.00
2019-04-14T01:03:52.559Z,176.40
2019-04-14T01:06:20.701Z,177.70
2019-04-14T01:08:48.883Z,172.95
2019-04-14T01:11:16.028Z,181.05
2019-04-14T01:13:43.957Z,176.68
2019-04-14T01:16:15.516Z,168.55
2019-04-14T01:18:40.768Z,171.60
2019-04-14T01:21:08.822Z,170.55
2019-04-14T01:23:36.877Z,164.62
2019-04-14T01:26:05.034Z,170.92
2019-04-14T01:28:32.995Z,171.40
2019-04-14T01:31:01.088Z,174.77
2019-04-14T01:33:29.307Z,172.95
2019-04-14T01:35:57.416Z,172.68
2019-04-14T01:38:25.440Z,168.90
2019-04-14T01:40:53.160Z,170.62
2019-04-14T01:43:21.265Z,173.87
2019-04-14T01:46:00.620Z,165.00
2019-04-14T01:48:17.211Z,163.43
2019-04-14T01:50:56.196Z,169.22
2019-04-14T01:53:35.717Z,165.50
2019-04-14T01:56:23.281Z,166.90
2019-04-14T01:58:53.409Z,167.98
2019-04-14T02:01:23.864Z,165.10
2019-04-14T02:03:51.937Z,158.60
2019-04-14T02:06:20.185Z,171.13
2019-04-14T02:08:48.535Z,167.90
2019-04-14T02:11:15.882Z,165.60
2019-04-14T02:13:44.015Z,164.37
2019-04-14T02:16:21.888Z,163.10
2019-04-14T02:18:40.572Z,161.45
2019-04-14T02:21:08.532Z,160.63
2019-04-14T02:23:36.585Z,160.65
2019-04-14T02:26:04.688Z,161.77
2019-04-14T02:28:33.067Z,161.60
2019-04-14T02:31:12.986Z,164.90
2019-04-14T02:33:50.369Z,156.55
2019-04-14T02:36:32.550Z,154.82
2019-04-14T02:41:32.874Z,160.95
2019-04-14T02:46:22.007Z,165.20
2019-04-14T02:48:52.948Z,165.45
2019-04-14T02:51:19.385Z,163.62
2019-04-14T02:53:54.435Z,165.92
2019-04-14T02:56:22.328Z,162.55
2019-04-14T02:58:52.389Z,158.40
2019-04-14T03:01:27.544Z,172.15
2019-04-14T03:03:43.724Z,162.43
2019-04-14T03:08:45.686Z,159.70
2019-04-14T03:11:11.681Z,173.47
2019-04-14T03:13:45.022Z,166.57
2019-04-14T03:18:44.678Z,167.82
2019-04-14T03:24:09.341Z,167.07
2019-04-14T03:26:49.923Z,170.65
2019-04-14T03:29:36.765Z,171.40
2019-04-14T03:34:33.799Z,166.22
2019-04-14T03:39:26.844Z,155.32
2019-04-14T03:41:45.599Z,146.53
2019-04-14T03:44:21.288Z,133.10
2019-04-14T03:49:14.130Z,124.18
2019-04-14T03:54:03.638Z,128.32
2019-04-14T03:56:49.005Z,125.82
2019-04-14T03:59:17.552Z,113.22
2019-04-14T04:01:45.703Z,106.37
2019-04-14T04:04:13.943Z,103.20
2019-04-14T04:06:42.163Z,104.80
2019-04-14T04:09:10.432Z,102.47
2019-04-14T04:11:38.923Z,105.22
2019-04-14T04:14:05.998Z,98.75
2019-04-14T04:16:35.531Z,94.60
2019-04-14T04:19:13.011Z,101.95
2019-04-14T04:21:57.425Z,97.70
2019-04-14T04:24:43.286Z,93.47
2019-04-14T04:27:29.030Z,90.57
2019-04-14T04:30:10.238Z,90.12
2019-04-14T04:32:44.948Z,91.87
2019-04-14T04:35:32.565Z,96.55
2019-04-14T04:38:07.378Z,89.60
2019-04-14T04:40:35.301Z,92.80
2019-04-14T04:43:03.716Z,96.08
2019-04-14T04:45:30.648Z,96.50
2019-04-14T04:47:57.740Z,97.95
2019-04-14T04:50:26.003Z,88.52
2019-04-14T04:52:54.002Z,89.05
2019-04-14T04:55:22.002Z,90.75
2019-04-14T04:57:50.176Z,90.60
2019-04-14T05:00:17.853Z,83.22
2019-04-14T05:02:46.049Z,86.00
2019-04-14T05:05:51.396Z,87.30
2019-04-14T05:08:19.549Z,84.95
2019-04-14T05:10:48.658Z,87.88
2019-04-14T05:13:16.163Z,91.67
2019-04-14T05:15:45.081Z,91.22
2019-04-14T05:18:13.902Z,103.30
2019-04-14T05:20:41.955Z,87.57
2019-04-14T05:23:10.128Z,84.32
2019-04-14T05:25:37.101Z,79.12
2019-04-14T05:28:04.788Z,78.50
2019-04-14T05:30:32.881Z,82.08
2019-04-14T05:33:00.914Z,74.65
2019-04-14T05:35:29.097Z,75.52
2019-04-14T05:37:57.208Z,75.55
2019-04-14T05:40:25.527Z,75.17
2019-04-14T05:42:53.684Z,64.17
2019-04-14T05:45:21.914Z,64.25
2019-04-14T05:47:50.115Z,66.02
2019-04-14T05:50:18.149Z,70.87
2019-04-14T05:52:45.203Z,65.85
2019-04-14T05:55:13.385Z,64.07
2019-04-14T05:57:41.640Z,61.42
2019-04-14T06:00:10.965Z,62.80
2019-04-14T06:02:38.066Z,61.73
2019-04-14T06:05:06.442Z,53.05
2019-04-14T06:07:33.644Z,58.85
2019-04-14T06:10:00.656Z,53.00
2019-04-14T06:12:27.577Z,56.28
2019-04-14T06:14:54.524Z,55.88
2019-04-14T06:17:23.348Z,57.90
2019-04-14T06:19:50.326Z,49.73
2019-04-14T06:22:17.349Z,38.20
2019-04-14T06:24:44.133Z,39.08
2019-04-14T06:27:10.984Z,40.58
2019-04-14T06:29:37.919Z,35.85
2019-04-14T06:32:11.414Z,34.95
2019-04-14T06:34:57.251Z,40.80
2019-04-14T06:37:26.408Z,35.08
2019-04-14T06:39:55.553Z,34.90
2019-04-14T06:42:22.402Z,46.60
2019-04-14T06:44:49.218Z,37.88
2019-04-14T06:47:16.042Z,31.35
2019-04-14T06:49:48.801Z,33.63
2019-04-14T06:52:12.104Z,23.87
2019-04-14T06:54:40.527Z,23.80
2019-04-14T06:57:07.653Z,24.95
2019-04-14T06:59:34.491Z,26.27
2019-04-14T07:02:01.866Z,26.27
2019-04-14T07:04:29.089Z,26.77
2019-04-14T07:06:55.869Z,28.20
2019-04-14T07:09:22.773Z,26.73
2019-04-14T07:11:49.719Z,26.52
2019-04-14T07:14:16.583Z,27.45
2019-04-14T07:16:43.525Z,21.75
2019-04-14T07:19:10.565Z,27.75
2019-04-14T07:21:37.514Z,23.73
2019-04-14T07:24:04.724Z,25.05
2019-04-14T07:26:31.754Z,24.60
2019-04-14T07:28:58.867Z,24.50
2019-04-14T07:31:44.495Z,24.60
2019-04-14T07:34:25.696Z,24.15
2019-04-14T07:36:54.503Z,21.93
2019-04-14T07:39:31.919Z,24.70
2019-04-14T07:42:16.033Z,24.63
2019-04-14T07:45:01.538Z,22.87
2019-04-14T07:47:36.210Z,23.55
2019-04-14T07:50:21.861Z,20.90
2019-04-14T07:52:50.975Z,22.60
2019-04-14T07:55:19.853Z,25.10
2019-04-14T07:57:54.893Z,21.17
2019-04-14T08:00:31.567Z,22.05
2019-04-14T08:03:04.129Z,20.75
2019-04-14T08:05:32.884Z,22.98
2019-04-14T08:07:59.859Z,23.80
2019-04-14T08:10:26.715Z,20.77
2019-04-14T08:12:53.696Z,92.20
2019-04-14T08:15:20.661Z,26.25
2019-04-14T08:17:47.626Z,23.55
2019-04-14T08:20:26.416Z,20.80
2019-04-14T08:22:43.564Z,19.45
2019-04-14T08:25:10.550Z,22.35
2019-04-14T08:27:37.531Z,21.65
2019-04-14T08:30:07.407Z,20.45
2019-04-14T08:32:34.338Z,24.47
2019-04-14T08:35:01.253Z,25.62
2019-04-14T08:37:28.246Z,22.52
2019-04-14T08:39:55.273Z,31.37
2019-04-14T08:42:24.586Z,79.62
2019-04-14T08:44:53.273Z,25.55
2019-04-14T08:47:24.916Z,21.40
2019-04-14T08:49:57.063Z,24.55
2019-04-14T08:52:32.160Z,22.50
2019-04-14T08:55:06.818Z,20.95
2019-04-14T08:57:53.049Z,24.65
2019-04-14T09:00:31.429Z,22.13
2019-04-14T09:03:06.381Z,21.25
2019-04-14T09:05:38.597Z,20.50
2019-04-14T09:08:10.504Z,20.55
2019-04-14T09:10:39.446Z,140.47
2019-04-14T09:13:06.419Z,22.40
2019-04-14T09:15:33.366Z,53.52
2019-04-14T09:18:00.551Z,20.75
2019-04-14T09:20:27.502Z,23.52
2019-04-14T09:22:54.541Z,22.77
2019-04-14T09:25:21.464Z,18.85
2019-04-14T09:27:48.786Z,20.30
2019-04-14T09:30:16.219Z,22.75
2019-04-14T09:32:43.119Z,20.32
2019-04-14T09:52:05.433Z,18.45
2019-04-14T09:54:32.887Z,22.82
2019-04-14T09:56:59.886Z,15.40
2019-04-14T09:59:30.072Z,12.15
2019-04-14T10:01:57.115Z,12.25
2019-04-14T10:04:24.099Z,13.55
2019-04-14T10:06:51.531Z,16.27
2019-04-14T10:09:18.518Z,17.23
2019-04-14T10:11:48.909Z,17.73
2019-04-14T10:14:14.309Z,26.70
2019-04-14T10:16:41.251Z,19.52
2019-04-14T10:19:08.155Z,14.98
2019-04-14T10:21:35.010Z,15.13
2019-04-14T10:24:02.668Z,14.30
2019-04-14T10:26:29.565Z,14.05
2019-04-14T10:28:56.489Z,24.45
2019-04-14T10:31:23.366Z,14.35
2019-04-14T10:33:52.376Z,13.93
2019-04-14T10:36:19.482Z,12.23
2019-04-14T11:08:14.936Z,6.28
2019-04-14T11:10:41.952Z,6.28
2019-04-14T11:13:08.873Z,5.08
2019-04-14T11:15:35.755Z,8.60
2019-04-14T11:18:03.205Z,4.42
2019-04-14T11:20:30.196Z,5.78
2019-04-14T11:23:03.128Z,6.25
2019-04-14T11:25:25.891Z,5.03
2019-04-14T11:27:52.923Z,6.12
2019-04-14T11:30:21.703Z,6.30
2019-04-14T11:32:51.069Z,4.53
2019-04-14T11:35:19.751Z,4.97
2019-04-14T11:37:48.927Z,4.03
2019-04-14T11:40:17.783Z,6.25
2019-04-14T11:42:52.159Z,4.95
2019-04-14T11:45:13.647Z,7.20
2019-04-14T11:47:41.142Z,5.67
2019-04-14T11:50:08.459Z,8.30
2019-04-14T11:52:36.094Z,5.85
2019-04-14T11:55:04.264Z,5.40
2019-04-14T11:57:31.206Z,4.22
2019-04-14T12:00:16.833Z,4.62
2019-04-14T12:02:49.134Z,5.08
2019-04-14T12:05:18.298Z,5.40
2019-04-14T12:07:49.928Z,4.65
2019-04-14T12:10:17.265Z,3.58
2019-04-14T12:12:44.182Z,6.22
2019-04-14T12:15:15.998Z,6.80
2019-04-14T12:17:40.072Z,4.53
2019-04-14T12:20:07.414Z,6.53
2019-04-14T12:22:34.441Z,4.90
2019-04-14T12:25:01.432Z,4.60
2019-04-14T12:27:28.287Z,3.95
2019-04-14T12:29:56.705Z,4.60
2019-04-14T12:32:24.310Z,4.42
2019-04-14T12:34:51.054Z,4.08
2019-04-14T12:37:18.600Z,4.85
2019-04-14T12:39:46.095Z,3.85
2019-04-14T12:42:30.270Z,3.90
2019-04-14T12:45:14.277Z,5.67
2019-04-14T12:47:58.208Z,6.37
2019-04-14T12:50:33.242Z,4.53
2019-04-14T12:53:00.903Z,4.45
2019-04-14T12:55:27.746Z,5.10
2019-04-14T12:57:56.661Z,4.90
2019-04-14T13:00:31.705Z,4.80
2019-04-14T13:02:58.622Z,5.62
2019-04-14T13:05:25.562Z,5.10
2019-04-14T13:07:52.551Z,4.22
2019-04-14T13:10:21.153Z,5.45
2019-04-14T13:12:48.120Z,4.83
2019-04-14T13:15:15.105Z,4.85
2019-04-14T13:17:41.971Z,5.47
2019-04-14T13:20:10.722Z,4.47
2019-04-14T13:22:37.752Z,5.03
2019-04-14T13:25:05.650Z,5.67
2019-04-14T13:27:33.179Z,4.20
2019-04-14T13:30:00.035Z,5.92
2019-04-14T13:32:35.776Z,5.37
2019-04-14T13:34:55.620Z,5.53
2019-04-14T13:37:22.710Z,4.35
2019-04-14T13:39:49.872Z,4.10
2019-04-14T13:42:16.768Z,5.08
2019-04-14T13:44:43.662Z,6.08
2019-04-14T13:47:10.793Z,3.98
2019-04-14T13:49:37.691Z,4.75
2019-04-14T13:52:04.693Z,2.92
2019-04-14T13:54:31.681Z,3.72
2019-04-14T13:56:58.548Z,5.30
2019-04-14T13:59:26.100Z,4.83
2019-04-14T14:01:53.145Z,4.80
2019-04-14T14:04:20.250Z,4.00
2019-04-14T14:06:47.130Z,3.70
2019-04-14T14:09:14.242Z,5.25
2019-04-14T14:11:59.389Z,6.00
2019-04-14T14:14:46.289Z,4.35
2019-04-14T14:17:16.901Z,4.75
2019-04-14T14:19:54.610Z,3.90
2019-04-14T14:22:40.504Z,4.90
2019-04-14T14:25:16.874Z,3.87
2019-04-14T14:27:43.929Z,5.20
2019-04-14T14:30:14.358Z,3.92
2019-04-14T14:32:41.271Z,5.10
2019-04-14T14:35:08.215Z,5.37
2019-04-14T14:37:35.213Z,5.83
2019-04-14T14:40:03.429Z,6.03
2019-04-14T14:42:30.405Z,6.28
2019-04-14T14:45:00.084Z,5.67
2019-04-14T14:47:28.835Z,8.25
2019-04-14T14:49:58.988Z,4.50
2019-04-14T14:52:25.962Z,4.40
2019-04-14T14:54:52.859Z,4.33
2019-04-14T14:57:19.819Z,4.45
2019-04-14T14:59:46.707Z,5.53
2019-04-14T15:02:14.080Z,5.03
2019-04-14T15:04:40.955Z,3.70
2019-04-14T15:07:08.036Z,3.87
2019-04-14T15:09:35.066Z,4.70
2019-04-14T15:13:32.813Z,3.45
2019-04-14T15:16:00.040Z,4.10
2019-04-14T15:18:26.939Z,6.83
2019-04-14T15:20:54.167Z,13.72
2019-04-14T15:23:25.323Z,5.22
2019-04-14T15:25:50.007Z,3.23
2019-04-14T15:28:17.017Z,3.62
2019-04-14T15:30:43.888Z,3.02
2019-04-14T15:33:10.665Z,2.80
2019-04-14T15:35:37.817Z,5.08
2019-04-14T15:38:04.933Z,2.95
2019-04-14T15:40:31.878Z,3.95
2019-04-14T15:42:58.911Z,3.80
2019-04-14T15:45:25.776Z,5.92
2019-04-14T15:47:53.771Z,5.00
2019-04-14T15:50:20.775Z,9.70
2019-04-14T15:52:47.847Z,15.48
2019-04-14T15:55:16.521Z,5.72
2019-04-14T15:57:51.566Z,5.83
2019-04-14T16:00:29.626Z,3.92
2019-04-14T16:03:15.297Z,6.85
2019-04-14T16:06:00.674Z,8.90
2019-04-14T16:08:29.640Z,10.00
2019-04-14T16:10:58.774Z,14.33
2019-04-14T16:13:44.177Z,11.15
2019-04-14T16:16:19.518Z,10.75
2019-04-14T16:18:53.592Z,10.43
2019-04-14T16:21:20.505Z,7.28
2019-04-14T16:23:50.732Z,6.67
2019-04-14T16:26:21.160Z,8.28
2019-04-14T16:29:05.002Z,7.40
2019-04-14T16:31:51.465Z,3.35
2019-04-14T16:34:20.218Z,3.02
2019-04-14T16:36:49.108Z,2.12
2019-04-14T16:39:15.967Z,1.30
2019-04-14T16:41:43.233Z,9.33
2019-04-14T16:44:10.377Z,10.72
2019-04-14T16:46:37.130Z,9.80
2019-04-14T16:49:04.113Z,10.93
2019-04-14T16:51:33.130Z,13.72
2019-04-14T16:54:03.177Z,13.57
2019-04-14T16:56:49.463Z,12.78
2019-04-14T16:59:16.482Z,10.98
2019-04-14T17:01:44.207Z,9.90
2019-04-14T17:04:11.124Z,12.60
2019-04-14T17:06:38.183Z,12.40
2019-04-14T17:09:06.458Z,11.55
2019-04-14T17:11:33.317Z,11.55
2019-04-14T17:14:04.693Z,9.45
2019-04-14T17:16:33.765Z,13.18
2019-04-14T17:19:02.925Z,15.08
2019-04-14T17:21:40.705Z,10.67
2019-04-14T17:24:16.412Z,11.78
2019-04-14T17:26:56.205Z,11.57
2019-04-14T17:29:31.176Z,11.48
2019-04-14T17:32:16.571Z,14.70
2019-04-14T17:35:02.232Z,15.15
2019-04-14T17:37:43.376Z,13.45
2019-04-14T17:40:12.839Z,15.80
2019-04-14T17:42:48.238Z,20.08
2019-04-14T17:45:16.860Z,20.25
2019-04-14T17:47:49.294Z,19.07
2019-04-14T17:50:24.625Z,22.32
2019-04-14T17:53:03.068Z,22.77
2019-04-14T17:55:32.231Z,18.77
2019-04-14T17:58:01.773Z,16.00
2019-04-14T18:00:30.846Z,14.75
2019-04-14T18:03:00.023Z,14.15
2019-04-14T18:05:29.313Z,15.80
2019-04-14T18:07:58.201Z,13.38
2019-04-14T18:10:30.050Z,13.90
2019-04-14T18:13:07.132Z,14.87
2019-04-14T18:15:51.437Z,15.15
2019-04-14T18:18:39.263Z,14.25
2019-04-14T18:21:08.055Z,16.57
2019-04-14T18:23:35.079Z,16.20
2019-04-14T18:26:02.151Z,18.15
2019-04-14T18:28:43.099Z,15.80
2019-04-14T18:31:12.357Z,16.10
2019-04-14T18:33:47.286Z,21.15
2019-04-14T18:36:19.167Z,15.50
2019-04-14T18:39:05.282Z,16.60
2019-04-14T18:41:40.296Z,16.37
2019-04-14T18:44:09.186Z,15.83
2019-04-14T18:46:46.967Z,15.38
2019-04-14T18:49:18.603Z,15.08
2019-04-14T18:51:54.184Z,18.10
2019-04-14T18:54:25.911Z,19.92
2019-04-14T18:56:57.657Z,21.33
2019-04-14T18:59:29.369Z,17.77
2019-04-14T19:01:57.067Z,19.80
2019-04-14T19:04:24.296Z,19.98
2019-04-14T19:06:51.389Z,20.00
2019-04-14T19:09:18.850Z,21.07
2019-04-14T19:11:51.073Z,20.20
2019-04-14T19:14:20.040Z,18.92
2019-04-14T19:16:57.925Z,22.77
2019-04-14T19:19:24.962Z,18.60
2019-04-14T19:21:51.944Z,21.33
2019-04-14T19:24:19.070Z,19.95
2019-04-14T19:26:46.226Z,18.65
2019-04-14T19:29:13.236Z,24.15
2019-04-14T19:31:40.456Z,22.48
2019-04-14T19:34:07.464Z,29.15
2019-04-14T19:36:34.315Z,23.60
2019-04-14T19:39:01.383Z,24.45
2019-04-14T19:41:28.414Z,26.25
2019-04-14T19:43:55.297Z,23.50
2019-04-14T19:46:22.297Z,23.80
2019-04-14T19:48:49.201Z,23.10
2019-04-14T19:51:16.044Z,27.15
2019-04-14T19:53:43.101Z,25.35
2019-04-14T19:56:10.079Z,24.55
2019-04-14T19:58:37.177Z,25.62
2019-04-14T20:01:07.155Z,24.10
2019-04-14T20:03:34.112Z,30.92
2019-04-14T20:06:01.016Z,25.23
2019-04-14T20:08:31.065Z,28.57
2019-04-14T20:10:58.278Z,27.32
2019-04-14T20:13:27.408Z,26.62
2019-04-14T20:15:57.834Z,27.27
2019-04-14T20:18:43.345Z,26.75
2019-04-14T20:21:15.353Z,27.13
2019-04-14T20:23:47.770Z,31.40
2019-04-14T20:26:22.840Z,32.88
2019-04-14T20:28:52.073Z,34.48
2019-04-14T20:31:33.043Z,32.75
2019-04-14T20:34:00.258Z,30.10
2019-04-14T20:36:27.345Z,28.95
2019-04-14T20:38:54.435Z,33.35
2019-04-14T20:41:21.206Z,33.38
2019-04-14T20:43:48.117Z,30.35
2019-04-14T20:46:15.242Z,34.75
2019-04-14T20:48:42.266Z,34.03
2019-04-14T20:51:10.255Z,36.40
2019-04-14T20:53:37.282Z,34.58
2019-04-14T20:56:06.428Z,34.03
2019-04-14T20:58:33.624Z,33.30
2019-04-14T21:01:01.311Z,34.25
2019-04-14T21:03:42.703Z,41.63
2019-04-14T21:06:27.343Z,37.28
2019-04-14T21:08:58.722Z,38.98
2019-04-14T21:11:29.438Z,39.50
2019-04-14T21:14:01.057Z,40.08
2019-04-14T21:16:32.994Z,40.70
2019-04-14T21:19:04.622Z,39.85
2019-04-14T21:21:37.037Z,40.00
2019-04-14T21:24:05.998Z,41.08
2019-04-14T21:26:51.440Z,36.45
2019-04-14T21:29:26.537Z,48.10
2019-04-14T21:31:55.260Z,47.65
2019-04-14T21:34:40.442Z,44.45
2019-04-14T21:37:26.064Z,49.25
2019-04-14T21:40:11.461Z,50.23
2019-04-14T21:42:39.687Z,45.95
2019-04-14T21:45:07.289Z,46.77
2019-04-14T21:47:34.114Z,50.10
2019-04-14T21:50:01.308Z,48.98
2019-04-14T21:52:33.218Z,49.20
2019-04-14T21:55:02.362Z,49.67
2019-04-14T21:57:34.061Z,44.13
2019-04-14T22:00:19.650Z,48.40
2019-04-14T22:03:05.199Z,49.75
2019-04-14T22:05:44.818Z,44.25
2019-04-14T22:08:25.212Z,40.75
2019-04-14T22:11:07.500Z,40.55
2019-04-14T22:13:34.924Z,43.55
2019-04-14T22:16:02.060Z,41.35
2019-04-14T22:18:29.069Z,40.60
2019-04-14T22:20:57.347Z,41.60
2019-04-14T22:23:24.443Z,45.20
2019-04-14T22:25:51.461Z,42.95
2019-04-14T22:28:18.344Z,41.73
2019-04-14T22:30:45.346Z,44.98
2019-04-14T22:33:12.167Z,44.13
2019-04-14T22:35:39.274Z,44.35
2019-04-14T22:38:06.313Z,44.25
2019-04-14T22:40:33.249Z,39.05
2019-04-14T22:43:00.330Z,40.85
2019-04-14T22:45:28.537Z,42.48
2019-04-14T22:47:55.429Z,50.03
2019-04-14T22:50:22.644Z,45.28
2019-04-14T22:52:49.707Z,41.85
2019-04-14T22:55:16.548Z,41.23
2019-04-14T22:57:43.426Z,46.02
2019-04-14T23:00:18.798Z,37.03
2019-04-14T23:02:57.001Z,45.12
2019-04-14T23:05:26.021Z,40.17
2019-04-14T23:07:55.220Z,42.98
2019-04-14T23:10:41.160Z,41.65
2019-04-14T23:13:09.810Z,46.50
2019-04-14T23:15:55.423Z,46.10
2019-04-14T23:18:24.454Z,42.48
2019-04-14T23:20:53.358Z,47.83
2019-04-14T23:23:37.311Z,42.38
2019-04-14T23:26:04.862Z,43.75
2019-04-14T23:28:31.824Z,45.23
2019-04-14T23:31:01.708Z,42.62
2019-04-14T23:33:28.964Z,48.35
2019-04-14T23:35:55.834Z,46.73
2019-04-14T23:38:22.886Z,41.90
2019-04-14T23:40:49.876Z,41.48
2019-04-14T23:43:16.763Z,43.90
2019-04-14T23:45:43.780Z,50.63
2019-04-14T23:48:10.941Z,44.55
2019-04-14T23:50:37.728Z,46.60
2019-04-14T23:53:04.641Z,46.92
2019-04-14T23:55:31.697Z,43.80
2019-04-14T23:57:58.581Z,43.75
